createdAt,value
2022-12-31T00:00:12.331Z,10.50
2022-12-31T00:02:39.941Z,10.50
2022-12-31T00:05:07.605Z,10.60
2022-12-31T00:10:01.878Z,10.60
2022-12-31T00:12:29.171Z,10.60
2022-12-31T00:14:55.883Z,10.50
2022-12-31T00:17:22.561Z,10.40
2022-12-31T00:19:49.336Z,10.20
2022-12-31T00:22:16.054Z,10.10
2022-12-31T00:24:42.877Z,10.10
2022-12-31T00:27:09.620Z,10.00
2022-12-31T00:29:36.418Z,10.00
2022-12-31T00:32:03.075Z,10.00
2022-12-31T00:34:29.866Z,9.90
2022-12-31T00:36:56.598Z,10.00
2022-12-31T00:39:23.323Z,9.80
2022-12-31T00:41:50.082Z,9.90
2022-12-31T00:44:16.821Z,9.80
2022-12-31T00:49:10.046Z,9.80
2022-12-31T00:51:36.758Z,9.90
2022-12-31T00:54:03.608Z,10.00
2022-12-31T00:56:31.364Z,10.00
2022-12-31T00:58:59.517Z,10.00
2022-12-31T01:01:27.723Z,10.00
2022-12-31T01:04:01.784Z,10.00
2022-12-31T01:06:28.558Z,10.00
2022-12-31T01:08:55.789Z,10.00
2022-12-31T01:11:24.239Z,10.00
2022-12-31T01:13:56.545Z,10.00
2022-12-31T01:16:26.421Z,10.00
2022-12-31T01:18:54.482Z,10.00
2022-12-31T01:21:22.137Z,9.90
2022-12-31T01:23:49.399Z,10.00
2022-12-31T01:26:18.238Z,10.00
2022-12-31T01:28:45.275Z,10.00
2022-12-31T01:31:14.793Z,9.90
2022-12-31T01:33:42.533Z,10.10
2022-12-31T01:36:13.462Z,10.20
2022-12-31T01:38:40.962Z,10.20
2022-12-31T01:41:11.058Z,10.10
2022-12-31T01:43:50.269Z,10.10
2022-12-31T01:46:41.980Z,10.10
2022-12-31T01:49:22.605Z,10.00
2022-12-31T01:52:00.224Z,10.00
2022-12-31T01:54:28.679Z,10.00
2022-12-31T01:56:56.441Z,10.00
2022-12-31T01:59:26.745Z,10.00
2022-12-31T02:01:53.810Z,10.00
2022-12-31T02:04:23.804Z,10.00
2022-12-31T02:06:56.118Z,10.00
2022-12-31T02:09:22.901Z,10.00
2022-12-31T02:11:49.586Z,10.00
2022-12-31T02:14:26.804Z,10.00
2022-12-31T02:17:12.143Z,10.00
2022-12-31T02:19:51.079Z,10.00
2022-12-31T02:22:26.629Z,10.00
2022-12-31T02:25:30.482Z,10.00
2022-12-31T02:28:03.401Z,10.00
2022-12-31T02:30:32.945Z,10.10
2022-12-31T02:33:22.113Z,10.20
2022-12-31T02:35:56.491Z,10.20
2022-12-31T02:38:31.388Z,10.20
2022-12-31T02:40:58.888Z,10.30
2022-12-31T02:43:26.315Z,10.30
2022-12-31T02:46:27.204Z,10.30
2022-12-31T02:49:05.409Z,10.30
2022-12-31T02:51:42.146Z,10.30
2022-12-31T02:54:35.219Z,10.30
2022-12-31T02:57:30.799Z,10.20
2022-12-31T03:00:25.844Z,10.30
2022-12-31T03:02:54.658Z,10.30
2022-12-31T03:05:24.428Z,10.20
2022-12-31T03:07:51.235Z,10.20
2022-12-31T03:10:18.040Z,10.20
2022-12-31T03:12:48.206Z,10.20
2022-12-31T03:15:22.546Z,10.20
2022-12-31T03:18:06.525Z,10.20
2022-12-31T03:21:02.508Z,10.20
2022-12-31T03:23:32.285Z,10.20
2022-12-31T03:26:00.263Z,10.20
2022-12-31T03:28:29.544Z,10.20
2022-12-31T03:31:02.139Z,10.30
2022-12-31T03:33:34.791Z,10.30
2022-12-31T03:36:06.457Z,10.20
2022-12-31T03:38:33.307Z,10.20
2022-12-31T03:41:00.199Z,10.30
2022-12-31T03:43:27.059Z,10.30
2022-12-31T03:45:54.817Z,10.30
2022-12-31T03:48:22.957Z,10.30
2022-12-31T03:50:50.413Z,10.40
2022-12-31T03:53:17.628Z,10.40
2022-12-31T03:55:44.887Z,10.40
2022-12-31T03:58:11.748Z,10.40
2022-12-31T04:00:38.683Z,10.50
2022-12-31T04:03:06.302Z,10.50
2022-12-31T04:05:33.644Z,10.60
2022-12-31T04:08:00.451Z,10.70
2022-12-31T04:10:27.106Z,10.70
2022-12-31T04:12:53.787Z,10.70
2022-12-31T04:15:21.217Z,10.80
2022-12-31T04:17:48.420Z,10.70
2022-12-31T04:20:16.150Z,10.80
2022-12-31T04:22:43.924Z,10.90
2022-12-31T04:25:11.513Z,11.00
2022-12-31T04:27:43.574Z,11.30
2022-12-31T04:30:12.041Z,11.40
2022-12-31T04:32:39.250Z,11.50
2022-12-31T04:35:07.540Z,11.50
2022-12-31T04:37:34.275Z,11.50
2022-12-31T04:40:05.845Z,11.50
2022-12-31T04:42:35.912Z,11.70
2022-12-31T04:45:03.204Z,11.70
2022-12-31T04:47:29.880Z,11.70
2022-12-31T04:49:56.624Z,11.90
2022-12-31T04:52:23.412Z,11.90
2022-12-31T04:54:50.322Z,12.00
2022-12-31T04:57:17.182Z,12.10
2022-12-31T04:59:43.862Z,12.30
2022-12-31T05:02:10.714Z,12.30
2022-12-31T05:04:37.545Z,12.40
2022-12-31T05:07:04.419Z,12.50
2022-12-31T05:09:31.279Z,12.30
2022-12-31T05:11:58.106Z,12.10
2022-12-31T05:14:25.093Z,11.90
2022-12-31T05:16:52.134Z,11.90
2022-12-31T05:19:18.909Z,11.90
2022-12-31T05:22:05.961Z,11.80
2022-12-31T05:24:32.807Z,11.70
2022-12-31T05:26:59.694Z,11.70
2022-12-31T05:29:26.604Z,11.50
2022-12-31T05:31:53.295Z,11.50
2022-12-31T05:34:20.119Z,11.50
2022-12-31T05:36:46.800Z,11.50
2022-12-31T05:39:13.487Z,11.50
2022-12-31T05:41:40.379Z,11.40
2022-12-31T05:44:07.062Z,11.40
2022-12-31T05:46:33.771Z,11.40
2022-12-31T05:49:00.521Z,11.30
2022-12-31T05:51:27.239Z,11.20
2022-12-31T05:53:53.944Z,11.10
2022-12-31T05:56:21.841Z,11.10
2022-12-31T05:58:48.891Z,11.00
2022-12-31T06:01:15.593Z,11.10
2022-12-31T06:03:42.382Z,11.00
2022-12-31T06:06:09.146Z,10.90
2022-12-31T06:08:35.927Z,10.90
2022-12-31T06:11:02.645Z,10.90
2022-12-31T06:13:30.101Z,10.90
2022-12-31T06:15:56.863Z,10.90
2022-12-31T06:18:23.591Z,11.00
2022-12-31T06:20:50.268Z,11.00
2022-12-31T06:23:17.003Z,11.00
2022-12-31T06:25:43.747Z,11.10
2022-12-31T06:28:17.825Z,11.10
2022-12-31T06:30:47.281Z,11.30
2022-12-31T06:33:14.276Z,11.40
2022-12-31T06:35:40.958Z,11.50
2022-12-31T06:38:07.645Z,11.60
2022-12-31T06:40:37.491Z,11.70
2022-12-31T06:43:05.768Z,11.90
2022-12-31T06:45:32.587Z,12.00
2022-12-31T06:47:59.404Z,12.30
2022-12-31T06:50:26.164Z,12.40
2022-12-31T06:52:53.931Z,12.40
2022-12-31T06:55:21.311Z,12.50
2022-12-31T06:57:48.505Z,12.90
2022-12-31T07:00:15.948Z,12.90
2022-12-31T07:03:01.586Z,13.10
2022-12-31T07:05:45.921Z,13.30
2022-12-31T07:08:20.702Z,13.30
2022-12-31T07:11:06.034Z,13.50
2022-12-31T07:13:51.323Z,13.50
2022-12-31T07:16:35.569Z,13.60
2022-12-31T07:19:26.880Z,13.60
2022-12-31T07:21:55.498Z,13.60
2022-12-31T07:24:22.687Z,13.60
2022-12-31T07:26:56.995Z,13.90
2022-12-31T07:29:36.133Z,13.90
2022-12-31T07:32:37.620Z,14.10
2022-12-31T07:35:20.582Z,14.10
2022-12-31T07:38:05.903Z,14.10
2022-12-31T07:40:46.604Z,14.10
2022-12-31T07:43:39.943Z,14.00
2022-12-31T07:46:15.951Z,14.30
2022-12-31T07:48:43.043Z,14.40
2022-12-31T07:51:10.631Z,14.40
2022-12-31T07:53:39.560Z,14.40
2022-12-31T07:56:08.877Z,14.50
2022-12-31T07:58:39.907Z,14.50
2022-12-31T08:01:15.723Z,14.50
2022-12-31T08:03:48.285Z,14.50
2022-12-31T08:06:36.111Z,14.50
2022-12-31T08:09:13.174Z,14.50
2022-12-31T08:11:56.519Z,14.50
2022-12-31T08:14:23.951Z,14.60
2022-12-31T08:16:51.511Z,14.60
2022-12-31T08:19:28.324Z,14.50
2022-12-31T08:22:20.925Z,14.60
2022-12-31T08:25:08.277Z,14.60
2022-12-31T08:27:53.603Z,14.60
2022-12-31T08:30:21.998Z,14.70
2022-12-31T08:32:52.035Z,14.70
2022-12-31T08:35:45.468Z,14.70
2022-12-31T08:38:47.358Z,14.70
2022-12-31T08:41:21.029Z,14.70
2022-12-31T08:43:55.629Z,14.60
2022-12-31T08:46:36.922Z,14.70
2022-12-31T08:49:04.075Z,14.70
2022-12-31T08:51:30.941Z,14.60
2022-12-31T08:53:57.797Z,14.50
2022-12-31T08:56:30.307Z,14.60
2022-12-31T08:59:18.535Z,14.60
2022-12-31T09:01:54.510Z,14.60
2022-12-31T09:04:55.069Z,14.50
2022-12-31T09:07:35.441Z,14.50
2022-12-31T09:10:24.475Z,14.50
2022-12-31T09:13:15.336Z,14.60
2022-12-31T09:16:14.207Z,14.60
2022-12-31T09:18:42.907Z,14.70
2022-12-31T09:21:15.201Z,14.80
2022-12-31T09:23:43.357Z,14.90
2022-12-31T09:26:35.176Z,15.00
2022-12-31T09:29:19.076Z,15.00
2022-12-31T09:32:08.745Z,15.00
2022-12-31T09:34:55.076Z,15.00
2022-12-31T09:37:58.620Z,15.10
2022-12-31T09:41:02.861Z,15.10
2022-12-31T09:44:09.377Z,15.20
2022-12-31T09:47:16.076Z,15.00
2022-12-31T09:49:54.393Z,15.20
2022-12-31T09:52:30.565Z,15.30
2022-12-31T09:55:35.131Z,15.40
2022-12-31T09:58:13.092Z,15.40
2022-12-31T10:00:50.319Z,15.60
2022-12-31T10:03:44.444Z,15.70
2022-12-31T10:06:36.987Z,15.60
2022-12-31T10:09:21.853Z,15.60
2022-12-31T10:11:57.538Z,15.60
2022-12-31T10:14:47.542Z,15.60
2022-12-31T10:17:48.151Z,15.60
2022-12-31T10:20:45.409Z,15.60
2022-12-31T10:23:25.388Z,15.60
2022-12-31T10:26:04.013Z,15.60
2022-12-31T10:28:49.810Z,15.60
2022-12-31T10:31:35.268Z,15.70
2022-12-31T10:34:26.033Z,15.70
2022-12-31T10:37:14.979Z,15.70
2022-12-31T10:40:09.022Z,15.80
2022-12-31T10:42:41.544Z,15.80
2022-12-31T10:45:20.143Z,15.80
2022-12-31T10:48:01.274Z,15.90
2022-12-31T10:50:34.037Z,16.00
2022-12-31T10:53:47.309Z,16.00
2022-12-31T10:56:39.058Z,16.00
2022-12-31T10:59:24.448Z,16.00
2022-12-31T11:02:28.980Z,16.00
2022-12-31T11:05:20.690Z,16.00
2022-12-31T11:08:05.397Z,16.00
2022-12-31T11:10:32.074Z,16.00
2022-12-31T11:13:24.925Z,15.80
2022-12-31T11:16:00.609Z,15.80
2022-12-31T11:18:31.854Z,15.60
2022-12-31T11:21:16.084Z,15.60
2022-12-31T11:24:01.555Z,15.60
2022-12-31T11:27:05.780Z,15.60
2022-12-31T11:29:53.621Z,15.60
2022-12-31T11:32:51.062Z,15.60
2022-12-31T11:35:43.678Z,15.60
2022-12-31T11:38:30.679Z,15.70
2022-12-31T11:41:05.669Z,15.80
2022-12-31T11:43:48.238Z,15.80
2022-12-31T11:46:37.092Z,15.70
2022-12-31T11:49:19.025Z,15.70
2022-12-31T11:52:21.550Z,15.70
2022-12-31T11:55:15.915Z,15.60
2022-12-31T11:57:48.881Z,15.60
2022-12-31T12:00:23.905Z,15.60
2022-12-31T12:03:03.011Z,15.60
2022-12-31T12:05:30.408Z,15.60
2022-12-31T12:07:57.567Z,15.50
2022-12-31T12:10:37.098Z,15.60
2022-12-31T12:13:23.832Z,15.60
2022-12-31T12:15:57.914Z,15.60
2022-12-31T12:18:36.141Z,15.60
2022-12-31T12:21:08.188Z,15.80
2022-12-31T12:23:35.205Z,15.80
2022-12-31T12:26:02.688Z,15.80
2022-12-31T12:28:44.373Z,15.80
2022-12-31T12:31:21.673Z,15.80
2022-12-31T12:33:50.264Z,16.00
2022-12-31T12:36:22.149Z,16.10
2022-12-31T12:38:59.725Z,16.10
2022-12-31T12:41:27.684Z,16.20
2022-12-31T12:44:08.972Z,16.20
2022-12-31T12:46:47.777Z,16.20
2022-12-31T12:49:27.429Z,16.40
2022-12-31T12:52:21.915Z,16.40
2022-12-31T12:55:13.993Z,16.30
2022-12-31T12:58:05.240Z,16.20
2022-12-31T13:00:39.731Z,16.20
2022-12-31T13:03:37.341Z,16.20
2022-12-31T13:06:47.094Z,16.20
2022-12-31T13:09:32.734Z,16.10
2022-12-31T13:12:07.079Z,16.00
2022-12-31T13:14:46.040Z,15.80
2022-12-31T13:17:34.372Z,15.60
2022-12-31T13:20:25.671Z,15.50
2022-12-31T13:23:18.059Z,15.40
2022-12-31T13:25:53.566Z,15.50
2022-12-31T13:28:23.957Z,15.40
2022-12-31T13:30:59.327Z,15.40
2022-12-31T13:33:37.571Z,15.50
2022-12-31T13:36:12.920Z,15.50
2022-12-31T13:38:48.579Z,15.40
2022-12-31T13:41:22.678Z,15.40
2022-12-31T13:44:11.193Z,15.40
2022-12-31T13:46:48.847Z,15.60
2022-12-31T13:49:15.461Z,15.70
2022-12-31T13:51:49.151Z,15.80
2022-12-31T13:54:15.806Z,15.80
2022-12-31T13:56:45.378Z,15.90
2022-12-31T13:59:26.365Z,15.90
2022-12-31T14:02:01.586Z,15.90
2022-12-31T14:04:39.120Z,15.90
2022-12-31T14:07:16.790Z,16.00
2022-12-31T14:09:43.835Z,16.10
2022-12-31T14:12:19.188Z,16.20
2022-12-31T14:15:17.775Z,16.30
2022-12-31T14:18:17.018Z,16.10
2022-12-31T14:20:49.373Z,16.00
2022-12-31T14:23:50.334Z,15.80
2022-12-31T14:26:28.323Z,15.60
2022-12-31T14:29:01.125Z,15.60
2022-12-31T14:31:49.574Z,15.50
2022-12-31T14:34:44.683Z,15.50
2022-12-31T14:37:18.274Z,15.50
2022-12-31T14:39:54.532Z,15.50
2022-12-31T14:42:38.893Z,15.60
2022-12-31T14:45:38.590Z,15.60
2022-12-31T14:48:11.046Z,15.60
2022-12-31T14:50:38.033Z,15.50
2022-12-31T14:53:06.215Z,15.60
2022-12-31T14:55:38.327Z,15.60
2022-12-31T14:58:29.672Z,15.60
2022-12-31T15:01:03.443Z,15.70
2022-12-31T15:03:42.944Z,15.70
2022-12-31T15:06:24.016Z,15.80
2022-12-31T15:09:08.337Z,15.70
2022-12-31T15:12:13.434Z,15.80
2022-12-31T15:15:03.949Z,15.70
2022-12-31T15:17:45.504Z,15.80
2022-12-31T15:20:36.424Z,15.80
2022-12-31T15:23:14.538Z,15.70
2022-12-31T15:25:48.358Z,15.50
2022-12-31T15:28:35.356Z,15.40
2022-12-31T15:31:17.498Z,15.40
2022-12-31T15:34:23.597Z,15.30
2022-12-31T15:36:59.062Z,15.30
2022-12-31T15:39:37.665Z,15.10
2022-12-31T15:42:37.246Z,15.00
2022-12-31T15:45:02.472Z,15.20
2022-12-31T15:47:30.743Z,15.40
2022-12-31T15:50:02.513Z,15.50
2022-12-31T15:53:03.841Z,15.30
2022-12-31T15:55:44.160Z,15.30
2022-12-31T15:58:13.708Z,15.50
2022-12-31T16:01:12.850Z,15.50
2022-12-31T16:03:44.956Z,15.50
2022-12-31T16:06:14.401Z,15.50
2022-12-31T16:08:45.255Z,15.50
2022-12-31T16:11:12.402Z,15.50
2022-12-31T16:13:48.722Z,15.50
2022-12-31T16:16:26.440Z,15.50
2022-12-31T16:18:54.059Z,15.40
2022-12-31T16:21:32.740Z,15.30
2022-12-31T16:24:04.033Z,15.40
2022-12-31T16:26:45.939Z,15.30
2022-12-31T16:29:18.177Z,15.40
2022-12-31T16:31:47.074Z,15.40
2022-12-31T16:34:16.786Z,15.50
2022-12-31T16:36:53.905Z,15.40
2022-12-31T16:39:25.430Z,15.30
2022-12-31T16:42:06.401Z,15.40
2022-12-31T16:44:33.192Z,15.50
2022-12-31T16:47:02.675Z,15.40
2022-12-31T16:49:31.365Z,15.40
2022-12-31T16:52:04.700Z,15.50
2022-12-31T16:54:37.096Z,15.50
2022-12-31T16:57:05.541Z,15.40
2022-12-31T16:59:35.932Z,15.50
2022-12-31T17:02:07.429Z,15.50
2022-12-31T17:04:34.438Z,15.40
2022-12-31T17:07:32.052Z,15.30
2022-12-31T17:10:25.287Z,15.20
2022-12-31T17:13:28.193Z,15.20
2022-12-31T17:15:48.298Z,15.20
2022-12-31T17:18:23.853Z,15.20
2022-12-31T17:20:52.713Z,15.30
2022-12-31T17:23:32.712Z,15.20
2022-12-31T17:26:14.561Z,15.40
2022-12-31T17:28:47.352Z,15.40
2022-12-31T17:31:31.879Z,15.20
2022-12-31T17:34:13.829Z,15.20
2022-12-31T17:37:06.808Z,15.10
2022-12-31T17:39:47.139Z,15.00
2022-12-31T17:42:22.462Z,15.00
2022-12-31T17:44:49.464Z,15.20
2022-12-31T17:47:16.168Z,15.30
2022-12-31T17:49:45.634Z,15.30
2022-12-31T17:52:14.245Z,15.10
2022-12-31T17:54:41.217Z,15.00
2022-12-31T17:57:23.381Z,15.20
2022-12-31T17:59:50.168Z,15.40
2022-12-31T18:02:17.118Z,15.40
2022-12-31T18:04:43.883Z,15.40
2022-12-31T18:07:10.578Z,15.40
2022-12-31T18:09:37.335Z,15.40
2022-12-31T18:12:06.468Z,15.40
2022-12-31T18:14:33.588Z,15.30
2022-12-31T18:17:00.935Z,15.30
2022-12-31T18:20:02.956Z,15.20
2022-12-31T18:22:16.099Z,15.10
2022-12-31T18:24:43.958Z,15.00
2022-12-31T18:27:20.571Z,15.20
2022-12-31T18:29:47.876Z,15.30
2022-12-31T18:32:21.094Z,15.20
2022-12-31T18:34:48.232Z,15.30
2022-12-31T18:37:21.511Z,15.30
2022-12-31T18:39:49.462Z,15.20
2022-12-31T18:42:18.472Z,15.30
2022-12-31T18:44:46.134Z,15.30
2022-12-31T18:47:20.311Z,15.20
2022-12-31T18:49:48.487Z,15.00
2022-12-31T18:52:17.756Z,15.00
2022-12-31T18:54:44.674Z,15.00
2022-12-31T18:57:13.041Z,15.20
2022-12-31T18:59:39.784Z,15.10
2022-12-31T19:02:17.931Z,15.10
2022-12-31T19:04:45.202Z,15.30
2022-12-31T19:07:12.200Z,15.30
2022-12-31T19:09:48.331Z,15.20
2022-12-31T19:12:17.100Z,15.10
2022-12-31T19:14:43.943Z,15.10
2022-12-31T19:19:36.319Z,15.10
2022-12-31T19:22:03.182Z,15.00
2022-12-31T19:24:30.064Z,15.10
2022-12-31T19:26:56.810Z,15.00
2022-12-31T19:29:26.656Z,15.00
2022-12-31T19:31:53.977Z,15.00
2022-12-31T19:34:20.826Z,15.00
2022-12-31T19:36:47.558Z,14.80
2022-12-31T19:39:20.450Z,14.70
2022-12-31T19:41:56.377Z,14.60
2022-12-31T19:44:25.981Z,14.70
2022-12-31T19:46:52.864Z,14.80
2022-12-31T19:49:19.616Z,14.70
2022-12-31T19:51:46.666Z,14.70
2022-12-31T19:54:14.336Z,14.70
2022-12-31T19:56:41.391Z,14.50
2022-12-31T19:59:10.340Z,14.50
2022-12-31T20:01:37.596Z,14.40
2022-12-31T20:04:04.671Z,14.40
2022-12-31T20:06:31.393Z,14.30
2022-12-31T20:08:58.105Z,14.20
2022-12-31T20:11:25.122Z,14.10
2022-12-31T20:13:53.524Z,14.10
2022-12-31T20:16:23.935Z,14.10
2022-12-31T20:18:50.907Z,14.00
2022-12-31T20:21:26.732Z,14.20
2022-12-31T20:23:54.941Z,14.40
2022-12-31T20:26:23.364Z,14.50
2022-12-31T20:28:50.883Z,14.40
2022-12-31T20:31:21.342Z,14.40
2022-12-31T20:33:48.352Z,14.40
2022-12-31T20:36:16.798Z,14.40
2022-12-31T20:38:43.970Z,14.50
2022-12-31T20:41:16.214Z,14.60
2022-12-31T20:43:43.631Z,14.50
2022-12-31T20:46:30.102Z,14.60
2022-12-31T20:48:59.650Z,14.60
2022-12-31T20:51:29.223Z,14.50
2022-12-31T20:53:58.490Z,14.50
2022-12-31T20:56:26.978Z,14.50
2022-12-31T20:58:53.752Z,14.70
2022-12-31T21:01:21.501Z,14.70
2022-12-31T21:04:06.320Z,14.70
2022-12-31T21:06:35.393Z,14.60
2022-12-31T21:09:04.258Z,14.70
2022-12-31T21:11:49.594Z,14.70
2022-12-31T21:14:16.311Z,14.70
2022-12-31T21:16:43.091Z,14.60
2022-12-31T21:19:09.927Z,14.60
2022-12-31T21:21:37.092Z,14.60
2022-12-31T21:24:04.137Z,14.50
2022-12-31T21:26:30.896Z,14.50
2022-12-31T21:28:57.807Z,14.40
2022-12-31T21:31:24.639Z,14.40
2022-12-31T21:33:51.417Z,14.60
2022-12-31T21:36:18.291Z,14.60
2022-12-31T21:38:45.168Z,14.70
2022-12-31T21:41:34.160Z,14.80
2022-12-31T21:44:02.041Z,15.00
2022-12-31T21:46:29.304Z,15.00
2022-12-31T21:48:58.200Z,14.90
2022-12-31T21:51:25.337Z,15.10
2022-12-31T21:53:52.174Z,15.30
2022-12-31T21:56:21.236Z,15.30
2022-12-31T21:59:14.616Z,15.30
2022-12-31T22:02:00.160Z,15.40
2022-12-31T22:05:00.834Z,15.40
2022-12-31T22:07:14.246Z,15.40
2022-12-31T22:09:40.956Z,15.60
2022-12-31T22:12:07.728Z,15.60
2022-12-31T22:14:34.429Z,15.60
2022-12-31T22:17:01.278Z,15.70
2022-12-31T22:19:27.935Z,15.60
2022-12-31T22:21:54.611Z,15.60
2022-12-31T22:24:21.344Z,15.80
2022-12-31T22:26:48.188Z,15.80
2022-12-31T22:29:14.947Z,16.00
2022-12-31T22:31:41.715Z,15.90
2022-12-31T22:34:08.596Z,15.90
2022-12-31T22:36:35.323Z,15.90
2022-12-31T22:39:02.067Z,15.80
2022-12-31T22:41:29.098Z,15.80
2022-12-31T22:44:03.607Z,15.80
2022-12-31T22:46:32.256Z,15.80
2022-12-31T22:49:00.367Z,15.80
2022-12-31T22:51:56.793Z,15.90
2022-12-31T22:54:15.085Z,15.80
2022-12-31T22:56:41.867Z,15.90
2022-12-31T22:59:09.424Z,15.80
2022-12-31T23:01:36.495Z,15.80
2022-12-31T23:04:03.973Z,15.90
2022-12-31T23:06:31.126Z,15.90
2022-12-31T23:09:17.103Z,15.80
2022-12-31T23:11:43.939Z,15.80
2022-12-31T23:14:35.172Z,15.80
2022-12-31T23:17:30.757Z,15.80
2022-12-31T23:20:18.399Z,15.70
2022-12-31T23:23:04.884Z,15.80
2022-12-31T23:25:32.887Z,15.80
2022-12-31T23:27:59.719Z,15.80
2022-12-31T23:30:26.449Z,15.80
2022-12-31T23:32:53.293Z,15.80
2022-12-31T23:35:20.010Z,15.80
2022-12-31T23:37:47.097Z,15.70
2022-12-31T23:40:20.625Z,15.80
2022-12-31T23:42:48.400Z,15.80
2022-12-31T23:45:15.294Z,15.80
2022-12-31T23:47:42.047Z,15.80
2022-12-31T23:50:09.017Z,15.80
2022-12-31T23:52:35.873Z,16.00
2022-12-31T23:55:03.630Z,16.00
2022-12-31T23:57:30.532Z,15.90
2022-12-31T23:59:58.567Z,16.00
